createdAt,value
2023-10-26T00:00:10.755Z,99606.25
2023-10-26T00:02:38.957Z,99604.97
2023-10-26T00:05:06.686Z,99609.09
2023-10-26T00:07:33.427Z,99615.34
2023-10-26T00:10:00.765Z,99609.97
2023-10-26T00:12:27.277Z,99611.78
2023-10-26T00:14:54.128Z,99611.50
2023-10-26T00:17:21.056Z,99613.50
2023-10-26T00:19:47.534Z,99603.13
2023-10-26T00:22:14.866Z,99600.31
2023-10-26T00:24:41.490Z,99600.50
2023-10-26T00:27:08.170Z,99601.28
2023-10-26T00:29:34.679Z,99611.22
2023-10-26T00:32:01.375Z,99605.09
2023-10-26T00:34:27.949Z,99614.13
2023-10-26T00:36:54.575Z,99608.56
2023-10-26T00:39:21.086Z,99603.31
2023-10-26T00:41:51.565Z,99605.16
2023-10-26T00:44:18.329Z,99607.31
2023-10-26T00:46:44.948Z,99601.06
2023-10-26T00:51:41.501Z,99602.88
2023-10-26T00:54:09.041Z,99601.41
2023-10-26T00:56:37.239Z,99591.16
2023-10-26T00:59:04.874Z,99597.09
2023-10-26T01:01:31.627Z,99591.16
2023-10-26T01:03:58.229Z,99591.16
2023-10-26T01:06:25.086Z,99589.25
2023-10-26T01:08:51.689Z,99589.41
2023-10-26T01:11:18.314Z,99591.88
2023-10-26T01:13:44.867Z,99589.72
2023-10-26T01:16:11.571Z,99587.09
2023-10-26T01:18:38.109Z,99596.97
2023-10-26T01:21:05.208Z,99594.88
2023-10-26T01:23:31.826Z,99601.50
2023-10-26T01:25:59.719Z,99601.13
2023-10-26T01:28:26.665Z,99597.69
2023-10-26T01:30:53.796Z,99606.22
2023-10-26T01:33:22.260Z,99602.13
2023-10-26T01:35:49.037Z,99596.84
2023-10-26T01:38:16.596Z,99600.78
2023-10-26T01:40:43.295Z,99599.50
2023-10-26T01:43:09.924Z,99599.22
2023-10-26T01:45:36.409Z,99600.84
2023-10-26T01:48:05.039Z,99592.28
2023-10-26T01:50:32.570Z,99590.47
2023-10-26T01:52:59.296Z,99590.19
2023-10-26T01:55:25.928Z,99585.88
2023-10-26T01:57:52.946Z,99584.91
2023-10-26T02:00:19.610Z,99590.19
2023-10-26T02:02:48.510Z,99588.84
2023-10-26T02:05:15.160Z,99587.38
2023-10-26T02:07:41.884Z,99583.75
2023-10-26T02:10:08.895Z,99584.91
2023-10-26T02:12:35.799Z,99581.09
2023-10-26T02:15:02.419Z,99581.28
2023-10-26T02:17:30.231Z,99584.09
2023-10-26T02:19:56.961Z,99581.97
2023-10-26T02:22:23.786Z,99591.69
2023-10-26T02:24:50.259Z,99586.44
2023-10-26T02:27:16.872Z,99588.06
2023-10-26T02:29:44.104Z,99586.09
2023-10-26T02:32:10.567Z,99587.41
2023-10-26T02:34:37.679Z,99579.50
2023-10-26T02:37:04.438Z,99585.13
2023-10-26T02:39:31.105Z,99581.50
2023-10-26T02:41:57.606Z,99590.03
2023-10-26T02:44:24.532Z,99581.66
2023-10-26T02:46:51.000Z,99588.91
2023-10-26T02:49:17.661Z,99586.44
2023-10-26T02:51:45.114Z,99598.94
2023-10-26T02:54:11.968Z,99594.69
2023-10-26T02:56:38.470Z,99590.88
2023-10-26T02:59:05.428Z,99596.31
2023-10-26T03:01:34.456Z,99599.78
2023-10-26T03:04:04.160Z,99600.13
2023-10-26T03:06:37.007Z,99602.25
2023-10-26T03:09:04.560Z,99599.13
2023-10-26T03:11:31.030Z,99595.00
2023-10-26T03:13:57.587Z,99597.47
2023-10-26T03:16:25.569Z,99597.94
2023-10-26T03:18:52.536Z,99595.13
2023-10-26T03:21:21.559Z,99598.59
2023-10-26T03:23:54.782Z,99594.63
2023-10-26T03:26:22.173Z,99600.22
2023-10-26T03:28:52.950Z,99597.13
2023-10-26T03:31:20.044Z,99598.66
2023-10-26T03:33:46.738Z,99604.56
2023-10-26T03:36:19.645Z,99599.28
2023-10-26T03:38:47.309Z,99607.50
2023-10-26T03:41:14.683Z,99601.56
2023-10-26T03:43:41.481Z,99599.13
2023-10-26T03:46:07.928Z,99608.84
2023-10-26T03:48:36.010Z,99603.41
2023-10-26T03:51:03.392Z,99607.19
2023-10-26T03:53:31.950Z,99600.94
2023-10-26T03:55:59.146Z,99604.56
2023-10-26T03:58:25.700Z,99603.59
2023-10-26T04:00:52.579Z,99609.47
2023-10-26T04:03:19.228Z,99614.75
2023-10-26T04:05:46.056Z,99612.28
2023-10-26T04:08:13.391Z,99610.81
2023-10-26T04:10:42.147Z,99612.63
2023-10-26T04:13:08.612Z,99597.66
2023-10-26T04:15:35.312Z,99607.56
2023-10-26T04:18:05.361Z,99616.09
2023-10-26T04:20:32.624Z,99613.13
2023-10-26T04:22:59.111Z,99615.09
2023-10-26T04:25:42.199Z,99615.09
2023-10-26T04:28:16.780Z,99603.25
2023-10-26T04:30:49.709Z,99602.28
2023-10-26T04:33:17.113Z,99611.00
2023-10-26T04:35:45.171Z,99600.94
2023-10-26T04:38:12.290Z,99605.56
2023-10-26T04:40:40.585Z,99596.66
2023-10-26T04:43:08.183Z,99596.00
2023-10-26T04:45:35.318Z,99598.00
2023-10-26T04:48:02.601Z,99598.16
2023-10-26T04:50:31.410Z,99590.44
2023-10-26T04:52:59.614Z,99592.09
2023-10-26T04:55:31.698Z,99598.34
2023-10-26T04:58:00.230Z,99602.31
2023-10-26T05:00:27.872Z,99594.41
2023-10-26T05:02:54.778Z,99597.41
2023-10-26T05:05:21.467Z,99602.19
2023-10-26T05:07:48.049Z,99603.00
2023-10-26T05:10:15.198Z,99606.44
2023-10-26T05:12:41.774Z,99603.34
2023-10-26T05:15:09.720Z,99610.25
2023-10-26T05:17:39.399Z,99616.69
2023-10-26T05:20:06.807Z,99614.56
2023-10-26T05:22:33.900Z,99614.56
2023-10-26T05:25:01.806Z,99609.00
2023-10-26T05:27:28.507Z,99610.63
2023-10-26T05:29:55.256Z,99604.72
2023-10-26T05:32:22.274Z,99604.56
2023-10-26T05:34:48.836Z,99610.78
2023-10-26T05:37:15.361Z,99604.72
2023-10-26T05:39:42.005Z,99600.25
2023-10-26T05:42:08.703Z,99609.00
2023-10-26T05:44:35.230Z,99610.00
2023-10-26T05:47:01.929Z,99604.06
2023-10-26T05:49:28.442Z,99611.16
2023-10-26T05:51:54.997Z,99613.25
2023-10-26T05:54:21.761Z,99612.63
2023-10-26T05:56:48.384Z,99609.00
2023-10-26T05:59:14.874Z,99613.25
2023-10-26T06:01:41.484Z,99614.25
2023-10-26T06:04:08.094Z,99614.94
2023-10-26T06:06:34.718Z,99609.66
2023-10-26T06:09:01.318Z,99607.66
2023-10-26T06:11:27.856Z,99609.28
2023-10-26T06:13:54.635Z,99610.97
2023-10-26T06:16:21.400Z,99614.38
2023-10-26T06:18:48.174Z,99615.56
2023-10-26T06:21:14.694Z,99622.00
2023-10-26T06:23:41.484Z,99617.84
2023-10-26T06:26:08.044Z,99627.38
2023-10-26T06:28:34.631Z,99623.97
2023-10-26T06:31:11.879Z,99630.69
2023-10-26T06:33:39.094Z,99632.00
2023-10-26T06:36:06.221Z,99632.94
2023-10-26T06:38:32.842Z,99632.63
2023-10-26T06:40:59.324Z,99638.72
2023-10-26T06:43:26.223Z,99628.66
2023-10-26T06:45:52.792Z,99636.38
2023-10-26T06:48:20.640Z,99638.50
2023-10-26T06:50:48.586Z,99634.69
2023-10-26T06:53:15.318Z,99629.94
2023-10-26T06:55:42.519Z,99635.84
2023-10-26T06:58:09.004Z,99635.31
2023-10-26T07:00:35.923Z,99638.41
2023-10-26T07:03:03.175Z,99631.63
2023-10-26T07:05:29.772Z,99641.84
2023-10-26T07:07:56.521Z,99638.19
2023-10-26T07:10:23.913Z,99640.31
2023-10-26T07:12:50.351Z,99636.34
2023-10-26T07:15:17.546Z,99639.50
2023-10-26T07:17:44.710Z,99644.22
2023-10-26T07:20:14.024Z,99643.25
2023-10-26T07:22:41.065Z,99639.09
2023-10-26T07:25:08.073Z,99632.00
2023-10-26T07:27:34.599Z,99630.84
2023-10-26T07:30:02.766Z,99634.78
2023-10-26T07:32:29.254Z,99628.94
2023-10-26T07:34:55.773Z,99633.69
2023-10-26T07:37:23.017Z,99631.25
2023-10-26T07:39:49.645Z,99626.63
2023-10-26T07:42:16.672Z,99631.81
2023-10-26T07:44:44.198Z,99637.38
2023-10-26T07:47:11.571Z,99642.59
2023-10-26T07:49:38.207Z,99636.97
2023-10-26T07:52:05.021Z,99649.97
2023-10-26T07:54:31.979Z,99644.19
2023-10-26T07:56:58.540Z,99646.91
2023-10-26T07:59:25.085Z,99660.94
2023-10-26T08:01:51.951Z,99656.94
2023-10-26T08:04:18.586Z,99655.25
2023-10-26T08:06:45.329Z,99656.88
2023-10-26T08:09:11.845Z,99655.50
2023-10-26T08:11:38.402Z,99661.72
2023-10-26T08:14:30.111Z,99657.28
2023-10-26T08:16:52.165Z,99656.44
2023-10-26T08:19:19.117Z,99661.72
2023-10-26T08:21:45.713Z,99662.00
2023-10-26T08:24:12.262Z,99659.66
2023-10-26T08:26:38.770Z,99670.84
2023-10-26T08:29:13.884Z,99664.19
2023-10-26T08:31:45.218Z,99663.84
2023-10-26T08:34:12.304Z,99661.47
2023-10-26T08:36:42.170Z,99661.78
2023-10-26T08:39:11.176Z,99665.41
2023-10-26T08:41:37.662Z,99671.41
2023-10-26T08:44:05.023Z,99664.75
2023-10-26T08:46:32.469Z,99670.88
2023-10-26T08:49:03.461Z,99669.50
2023-10-26T08:51:30.148Z,99675.81
2023-10-26T08:53:58.322Z,99678.25
2023-10-26T08:56:25.094Z,99677.72
2023-10-26T08:58:56.438Z,99675.88
2023-10-26T09:01:23.187Z,99675.69
2023-10-26T09:03:49.872Z,99675.25
2023-10-26T09:06:16.736Z,99678.72
2023-10-26T09:08:43.891Z,99680.06
2023-10-26T09:11:23.668Z,99682.63
2023-10-26T09:13:51.398Z,99681.00
2023-10-26T09:16:18.072Z,99677.34
2023-10-26T09:18:51.606Z,99680.38
2023-10-26T09:21:18.763Z,99677.63
2023-10-26T09:23:46.375Z,99680.44
2023-10-26T09:26:13.057Z,99676.34
2023-10-26T09:28:56.545Z,99679.16
2023-10-26T09:31:24.451Z,99682.81
2023-10-26T09:33:51.644Z,99675.53
2023-10-26T09:36:19.823Z,99682.72
2023-10-26T09:38:48.631Z,99683.25
2023-10-26T09:41:20.020Z,99675.31
2023-10-26T09:43:46.938Z,99683.78
2023-10-26T09:46:15.456Z,99675.78
2023-10-26T09:48:42.485Z,99670.59
2023-10-26T09:51:11.638Z,99671.44
2023-10-26T09:53:43.423Z,99667.06
2023-10-26T09:56:18.295Z,99660.31
2023-10-26T09:58:45.053Z,99665.59
2023-10-26T10:01:38.272Z,99661.06
2023-10-26T10:04:10.638Z,99671.06
2023-10-26T10:06:51.290Z,99668.56
2023-10-26T10:09:21.202Z,99668.28
2023-10-26T10:12:09.238Z,99678.75
2023-10-26T10:14:47.742Z,99677.34
2023-10-26T10:17:18.726Z,99675.34
2023-10-26T10:19:49.700Z,99674.34
2023-10-26T10:22:34.893Z,99673.66
2023-10-26T10:25:04.171Z,99675.13
2023-10-26T10:27:32.500Z,99678.88
2023-10-26T10:30:03.676Z,99676.41
2023-10-26T10:32:46.326Z,99679.63
2023-10-26T10:35:15.990Z,99675.72
2023-10-26T10:38:14.838Z,99672.25
2023-10-26T10:41:02.813Z,99669.94
2023-10-26T10:43:44.793Z,99671.00
2023-10-26T10:46:23.070Z,99671.69
2023-10-26T10:49:07.172Z,99673.34
2023-10-26T10:51:38.297Z,99671.91
2023-10-26T10:54:29.397Z,99678.94
2023-10-26T10:57:05.711Z,99675.94
2023-10-26T10:59:32.256Z,99677.56
2023-10-26T11:02:14.883Z,99675.81
2023-10-26T11:05:09.273Z,99668.16
2023-10-26T11:07:43.127Z,99669.41
2023-10-26T11:10:09.978Z,99666.00
2023-10-26T11:12:36.639Z,99668.66
2023-10-26T11:15:05.111Z,99664.66
2023-10-26T11:17:32.662Z,99663.06
2023-10-26T11:19:59.342Z,99666.38
2023-10-26T11:22:26.018Z,99659.41
2023-10-26T11:24:52.783Z,99670.19
2023-10-26T11:27:22.164Z,99668.56
2023-10-26T11:30:03.770Z,99676.75
2023-10-26T11:32:30.562Z,99678.19
2023-10-26T11:35:07.506Z,99678.38
2023-10-26T11:37:38.503Z,99670.38
2023-10-26T11:40:06.693Z,99664.38
2023-10-26T11:42:44.443Z,99668.41
2023-10-26T11:45:12.841Z,99666.97
2023-10-26T11:47:55.148Z,99673.44
2023-10-26T11:50:29.923Z,99667.16
2023-10-26T11:53:04.429Z,99663.59
2023-10-26T11:55:33.152Z,99659.22
2023-10-26T11:58:03.967Z,99657.63
2023-10-26T12:00:31.309Z,99660.44
2023-10-26T12:02:59.301Z,99652.28
2023-10-26T12:05:27.145Z,99649.88
2023-10-26T12:07:54.611Z,99645.09
2023-10-26T12:10:23.025Z,99642.91
2023-10-26T12:12:50.261Z,99644.91
2023-10-26T12:15:17.706Z,99652.66
2023-10-26T12:17:44.586Z,99653.81
2023-10-26T12:20:12.277Z,99659.78
2023-10-26T12:22:40.006Z,99650.97
2023-10-26T12:25:08.656Z,99658.00
2023-10-26T12:28:19.375Z,99659.56
2023-10-26T12:30:22.372Z,99657.56
2023-10-26T12:32:49.085Z,99665.69
2023-10-26T12:35:15.596Z,99664.63
2023-10-26T12:37:42.099Z,99668.28
2023-10-26T12:40:09.350Z,99663.72
2023-10-26T12:42:36.829Z,99671.00
2023-10-26T12:45:04.002Z,99671.41
2023-10-26T12:47:30.566Z,99668.66
2023-10-26T12:49:57.080Z,99668.84
2023-10-26T12:52:23.574Z,99665.41
2023-10-26T12:54:50.074Z,99668.41
2023-10-26T12:57:16.583Z,99662.28
2023-10-26T12:59:43.043Z,99662.66
2023-10-26T13:02:09.954Z,99668.97
2023-10-26T13:04:37.081Z,99670.22
2023-10-26T13:07:04.114Z,99668.78
2023-10-26T13:09:30.610Z,99666.31
2023-10-26T13:11:57.317Z,99667.41
2023-10-26T13:14:23.761Z,99675.63
2023-10-26T13:16:57.227Z,99668.75
2023-10-26T13:19:26.088Z,99672.22
2023-10-26T13:21:52.830Z,99670.09
2023-10-26T13:24:19.527Z,99679.53
2023-10-26T13:26:46.047Z,99681.69
2023-10-26T13:29:12.588Z,99671.88
2023-10-26T13:31:39.131Z,99673.63
2023-10-26T13:34:08.564Z,99677.97
2023-10-26T13:36:35.363Z,99675.88
2023-10-26T13:39:04.928Z,99682.34
2023-10-26T13:41:31.430Z,99682.72
2023-10-26T13:43:59.803Z,99682.47
2023-10-26T13:46:26.458Z,99688.00
2023-10-26T13:48:54.058Z,99686.19
2023-10-26T13:51:20.846Z,99681.44
2023-10-26T13:53:47.411Z,99673.69
2023-10-26T13:56:14.025Z,99677.19
2023-10-26T13:58:40.522Z,99677.81
2023-10-26T14:01:13.937Z,99677.44
2023-10-26T14:03:40.718Z,99676.16
2023-10-26T14:06:08.860Z,99679.28
2023-10-26T14:08:35.555Z,99681.28
2023-10-26T14:11:02.236Z,99685.56
2023-10-26T14:13:29.645Z,99680.91
2023-10-26T14:15:56.355Z,99672.53
2023-10-26T14:18:23.011Z,99681.28
2023-10-26T14:20:49.524Z,99682.09
2023-10-26T14:23:16.130Z,99681.38
2023-10-26T14:25:43.211Z,99684.19
2023-10-26T14:28:09.687Z,99689.13
2023-10-26T14:30:36.322Z,99682.66
2023-10-26T14:33:02.928Z,99683.47
2023-10-26T14:35:30.025Z,99676.75
2023-10-26T14:37:59.731Z,99674.19
2023-10-26T14:40:26.888Z,99671.91
2023-10-26T14:42:53.746Z,99677.53
2023-10-26T14:45:20.532Z,99670.44
2023-10-26T14:47:47.624Z,99675.72
2023-10-26T14:50:14.231Z,99679.53
2023-10-26T14:52:40.874Z,99671.69
2023-10-26T14:55:10.089Z,99665.41
2023-10-26T14:57:36.804Z,99668.63
2023-10-26T15:00:04.252Z,99651.31
2023-10-26T15:02:30.976Z,99667.34
2023-10-26T15:04:57.549Z,99664.13
2023-10-26T15:07:24.145Z,99660.31
2023-10-26T15:10:21.113Z,99662.13
2023-10-26T15:12:39.284Z,99650.13
2023-10-26T15:15:06.360Z,99656.19
2023-10-26T15:17:33.409Z,99657.69
2023-10-26T15:19:59.928Z,99645.63
2023-10-26T15:22:27.318Z,99641.53
2023-10-26T15:24:53.989Z,99635.63
2023-10-26T15:27:20.828Z,99636.25
2023-10-26T15:29:47.536Z,99640.34
2023-10-26T15:32:19.121Z,99635.72
2023-10-26T15:34:48.975Z,99633.44
2023-10-26T15:37:16.377Z,99640.91
2023-10-26T15:39:43.283Z,99638.63
2023-10-26T15:42:10.800Z,99638.16
2023-10-26T15:44:37.658Z,99638.16
2023-10-26T15:47:05.261Z,99633.72
2023-10-26T15:49:36.264Z,99630.06
2023-10-26T15:52:04.093Z,99632.25
2023-10-26T15:54:30.757Z,99631.97
2023-10-26T15:56:58.060Z,99632.34
2023-10-26T15:59:25.680Z,99626.25
2023-10-26T16:01:52.471Z,99630.63
2023-10-26T16:04:19.098Z,99630.63
2023-10-26T16:06:47.662Z,99631.44
2023-10-26T16:09:14.734Z,99631.44
2023-10-26T16:11:41.197Z,99636.06
2023-10-26T16:14:07.812Z,99633.78
2023-10-26T16:16:34.486Z,99639.91
2023-10-26T16:19:01.225Z,99639.47
2023-10-26T16:21:27.774Z,99637.00
2023-10-26T16:23:54.303Z,99632.50
2023-10-26T16:26:22.291Z,99639.34
2023-10-26T16:28:50.720Z,99632.25
2023-10-26T16:31:17.686Z,99638.34
2023-10-26T16:33:45.879Z,99632.88
2023-10-26T16:36:13.016Z,99631.41
2023-10-26T16:38:39.745Z,99636.16
2023-10-26T16:41:07.655Z,99635.16
2023-10-26T16:43:35.336Z,99642.72
2023-10-26T16:46:02.288Z,99644.75
2023-10-26T16:48:29.274Z,99644.78
2023-10-26T16:50:56.621Z,99647.44
2023-10-26T16:53:31.862Z,99649.44
2023-10-26T16:56:04.549Z,99654.47
2023-10-26T16:58:37.996Z,99650.16
2023-10-26T17:01:07.418Z,99656.44
2023-10-26T17:03:34.089Z,99653.44
2023-10-26T17:06:00.649Z,99654.47
2023-10-26T17:08:27.134Z,99649.97
2023-10-26T17:10:53.646Z,99648.78
2023-10-26T17:13:21.132Z,99648.63
2023-10-26T17:15:52.310Z,99651.81
2023-10-26T17:18:21.257Z,99649.72
2023-10-26T17:20:47.829Z,99652.97
2023-10-26T17:23:14.506Z,99661.38
2023-10-26T17:25:41.324Z,99655.44
2023-10-26T17:28:09.405Z,99654.63
2023-10-26T17:30:37.489Z,99650.16
2023-10-26T17:33:04.478Z,99654.81
2023-10-26T17:35:30.943Z,99652.00
2023-10-26T17:37:57.609Z,99652.88
2023-10-26T17:40:24.644Z,99639.41
2023-10-26T17:42:52.361Z,99647.50
2023-10-26T17:45:19.743Z,99651.41
2023-10-26T17:47:46.813Z,99643.69
2023-10-26T17:50:13.566Z,99636.78
2023-10-26T17:52:40.189Z,99634.13
2023-10-26T17:55:08.888Z,99633.28
2023-10-26T17:57:35.469Z,99637.41
2023-10-26T18:00:01.993Z,99638.13
2023-10-26T18:02:38.486Z,99641.91
2023-10-26T18:05:05.465Z,99636.19
2023-10-26T18:07:31.984Z,99637.19
2023-10-26T18:09:58.575Z,99635.31
2023-10-26T18:12:27.579Z,99637.66
2023-10-26T18:14:54.265Z,99633.19
2023-10-26T18:17:21.531Z,99635.53
2023-10-26T18:19:48.149Z,99636.91
2023-10-26T18:22:14.676Z,99635.91
2023-10-26T18:24:42.531Z,99641.19
2023-10-26T18:27:09.440Z,99642.00
2023-10-26T18:29:36.197Z,99644.00
2023-10-26T18:32:02.758Z,99646.47
2023-10-26T18:34:29.404Z,99646.28
2023-10-26T18:36:55.943Z,99654.56
2023-10-26T18:39:22.578Z,99647.00
2023-10-26T18:41:49.060Z,99649.16
2023-10-26T18:44:15.572Z,99649.16
2023-10-26T18:46:42.348Z,99649.16
2023-10-26T18:49:09.840Z,99650.34
2023-10-26T18:51:36.728Z,99644.72
2023-10-26T18:54:04.465Z,99644.72
2023-10-26T18:56:31.086Z,99645.19
2023-10-26T18:58:57.818Z,99651.63
2023-10-26T19:01:26.917Z,99649.97
2023-10-26T19:04:02.350Z,99652.09
2023-10-26T19:06:30.701Z,99649.34
2023-10-26T19:08:58.099Z,99648.69
2023-10-26T19:11:24.680Z,99648.25
2023-10-26T19:13:51.423Z,99651.84
2023-10-26T19:16:18.753Z,99655.50
2023-10-26T19:18:45.992Z,99648.59
2023-10-26T19:21:14.042Z,99644.50
2023-10-26T19:23:41.489Z,99651.59
2023-10-26T19:26:08.340Z,99656.56
2023-10-26T19:28:34.845Z,99657.69
2023-10-26T19:31:01.520Z,99649.28
2023-10-26T19:33:28.090Z,99658.38
2023-10-26T19:35:54.740Z,99670.38
2023-10-26T19:38:21.207Z,99661.84
2023-10-26T19:40:47.828Z,99657.84
2023-10-26T19:43:14.373Z,99665.13
2023-10-26T19:45:43.245Z,99653.56
2023-10-26T19:48:09.886Z,99656.19
2023-10-26T19:50:36.454Z,99654.22
2023-10-26T19:53:03.029Z,99650.41
2023-10-26T19:55:29.787Z,99650.91
2023-10-26T19:57:56.483Z,99651.94
2023-10-26T20:00:23.077Z,99651.66
2023-10-26T20:02:49.879Z,99660.19
2023-10-26T20:05:16.390Z,99653.44
2023-10-26T20:07:43.238Z,99655.09
2023-10-26T20:10:09.961Z,99662.03
2023-10-26T20:12:38.121Z,99659.91
2023-10-26T20:15:06.616Z,99657.25
2023-10-26T20:17:33.970Z,99655.09
2023-10-26T20:20:01.253Z,99658.91
2023-10-26T20:22:28.092Z,99663.81
2023-10-26T20:24:54.590Z,99666.19
2023-10-26T20:27:22.468Z,99669.97
2023-10-26T20:29:50.573Z,99664.06
2023-10-26T20:32:17.182Z,99662.88
2023-10-26T20:34:43.729Z,99663.88
2023-10-26T20:37:11.585Z,99666.81
2023-10-26T20:39:38.104Z,99663.72
2023-10-26T20:42:06.249Z,99664.34
2023-10-26T20:44:32.843Z,99667.31
2023-10-26T20:46:59.586Z,99666.97
2023-10-26T20:49:26.121Z,99655.16
2023-10-26T20:52:08.151Z,99653.00
2023-10-26T20:54:34.704Z,99653.16
2023-10-26T20:57:01.162Z,99654.63
2023-10-26T20:59:27.644Z,99656.75
2023-10-26T21:01:54.147Z,99655.25
2023-10-26T21:04:20.830Z,99652.81
2023-10-26T21:06:47.814Z,99651.03
2023-10-26T21:09:15.468Z,99651.03
2023-10-26T21:11:41.940Z,99647.56
2023-10-26T21:14:09.093Z,99641.69
2023-10-26T21:16:35.681Z,99646.59
2023-10-26T21:19:02.445Z,99645.94
2023-10-26T21:21:29.018Z,99649.41
2023-10-26T21:23:55.505Z,99652.41
2023-10-26T21:26:22.124Z,99643.47
2023-10-26T21:28:48.815Z,99632.13
2023-10-26T21:31:15.479Z,99635.41
2023-10-26T21:33:41.981Z,99637.03
2023-10-26T21:36:10.090Z,99638.97
2023-10-26T21:38:36.727Z,99636.50
2023-10-26T21:41:05.830Z,99645.25
2023-10-26T21:43:33.586Z,99643.13
2023-10-26T21:46:07.338Z,99644.59
2023-10-26T21:48:34.791Z,99641.78
2023-10-26T21:51:02.770Z,99650.69
2023-10-26T21:53:29.321Z,99640.50
2023-10-26T21:55:55.919Z,99638.53
2023-10-26T21:58:22.438Z,99644.44
2023-10-26T22:00:49.252Z,99639.88
2023-10-26T22:03:15.766Z,99638.88
2023-10-26T22:05:42.289Z,99636.41
2023-10-26T22:08:08.793Z,99629.94
2023-10-26T22:10:35.352Z,99629.94
2023-10-26T22:13:02.033Z,99629.13
2023-10-26T22:15:29.617Z,99629.59
2023-10-26T22:17:56.503Z,99625.34
2023-10-26T22:20:23.549Z,99621.41
2023-10-26T22:22:50.016Z,99629.00
2023-10-26T22:25:17.294Z,99622.09
2023-10-26T22:27:43.848Z,99630.63
2023-10-26T22:30:11.555Z,99625.09
2023-10-26T22:32:38.096Z,99629.00
2023-10-26T22:35:04.934Z,99631.47
2023-10-26T22:37:31.506Z,99617.66
2023-10-26T22:39:58.007Z,99615.66
2023-10-26T22:42:24.893Z,99611.03
2023-10-26T22:44:51.584Z,99611.22
2023-10-26T22:47:18.106Z,99604.47
2023-10-26T22:49:44.884Z,99612.41
2023-10-26T22:52:12.205Z,99599.91
2023-10-26T22:54:38.737Z,99604.81
2023-10-26T22:57:05.613Z,99603.00
2023-10-26T22:59:32.293Z,99603.16
2023-10-26T23:01:58.875Z,99605.00
2023-10-26T23:04:26.070Z,99604.00
2023-10-26T23:06:52.702Z,99600.34
2023-10-26T23:09:19.305Z,99598.53
2023-10-26T23:11:45.809Z,99587.16
2023-10-26T23:14:12.519Z,99602.34
2023-10-26T23:16:39.334Z,99601.06
2023-10-26T23:19:06.288Z,99599.63
2023-10-26T23:21:33.386Z,99596.78
2023-10-26T23:24:03.606Z,99592.81
2023-10-26T23:26:34.822Z,99591.16
2023-10-26T23:29:04.765Z,99591.50
2023-10-26T23:31:31.408Z,99585.59
2023-10-26T23:33:58.331Z,99583.59
2023-10-26T23:36:24.881Z,99572.59
2023-10-26T23:38:52.349Z,99574.41
2023-10-26T23:41:18.857Z,99566.50
2023-10-26T23:43:45.720Z,99565.50
2023-10-26T23:46:12.286Z,99554.31
2023-10-26T23:48:39.940Z,99536.69
2023-10-26T23:51:07.139Z,99539.47
2023-10-26T23:53:35.640Z,99544.75
2023-10-26T23:56:02.875Z,99537.50
2023-10-26T23:58:29.565Z,99541.78
